createdAt,value
2023-05-06T00:00:55.107Z,61.50
2023-05-06T00:02:56.777Z,61.75
2023-05-06T00:04:58.532Z,61.88
2023-05-06T00:07:00.219Z,61.74
2023-05-06T00:09:02.055Z,61.64
2023-05-06T00:11:05.099Z,62.02
2023-05-06T00:13:06.742Z,61.80
2023-05-06T00:15:09.352Z,61.74
2023-05-06T00:17:11.404Z,61.98
2023-05-06T00:19:13.672Z,62.04
2023-05-06T00:21:15.514Z,62.47
2023-05-06T00:23:17.127Z,62.14
2023-05-06T00:25:19.370Z,62.32
2023-05-06T00:27:22.418Z,62.10
2023-05-06T00:29:24.059Z,61.64
2023-05-06T00:31:25.627Z,61.48
2023-05-06T00:33:27.280Z,61.21
2023-05-06T00:35:28.998Z,61.85
2023-05-06T00:37:30.707Z,61.85
2023-05-06T00:39:32.427Z,61.97
2023-05-06T00:41:34.318Z,61.90
2023-05-06T00:43:37.374Z,62.42
2023-05-06T00:45:39.234Z,62.14
2023-05-06T00:47:42.331Z,62.73
2023-05-06T00:49:45.285Z,62.88
2023-05-06T00:51:47.352Z,62.98
2023-05-06T00:53:49.645Z,62.67
2023-05-06T00:55:51.268Z,63.15
2023-05-06T00:57:53.283Z,63.08
2023-05-06T00:59:56.331Z,63.07
2023-05-06T01:01:58.279Z,62.69
2023-05-06T01:04:00.054Z,63.11
2023-05-06T01:06:11.787Z,62.80
2023-05-06T01:08:21.407Z,62.93
2023-05-06T01:10:31.451Z,62.87
2023-05-06T01:12:41.330Z,63.06
2023-05-06T01:14:49.910Z,62.90
2023-05-06T01:16:58.108Z,62.35
2023-05-06T01:19:00.463Z,62.48
2023-05-06T01:21:05.257Z,62.68
2023-05-06T01:23:11.433Z,62.63
2023-05-06T01:25:18.337Z,62.46
2023-05-06T01:27:20.291Z,62.15
2023-05-06T01:29:22.099Z,62.53
2023-05-06T01:31:32.161Z,62.57
2023-05-06T01:33:41.194Z,62.03
2023-05-06T01:35:53.928Z,61.39
2023-05-06T01:38:03.915Z,61.59
2023-05-06T01:40:09.145Z,61.71
2023-05-06T01:42:13.927Z,62.06
2023-05-06T01:44:16.077Z,62.26
2023-05-06T01:46:19.965Z,62.43
2023-05-06T01:48:23.611Z,62.26
2023-05-06T01:50:25.793Z,62.44
2023-05-06T01:52:28.660Z,62.27
2023-05-06T01:54:30.594Z,62.47
2023-05-06T01:56:33.628Z,62.53
2023-05-06T01:58:35.504Z,62.83
2023-05-06T02:00:37.971Z,62.67
2023-05-06T02:02:39.746Z,62.12
2023-05-06T02:04:41.409Z,62.16
2023-05-06T02:06:43.125Z,61.89
2023-05-06T02:08:44.792Z,62.19
2023-05-06T02:10:47.946Z,61.84
2023-05-06T02:12:51.319Z,62.08
2023-05-06T02:14:53.426Z,62.08
2023-05-06T02:16:55.306Z,62.05
2023-05-06T02:18:56.948Z,62.04
2023-05-06T02:20:58.586Z,61.85
2023-05-06T02:23:00.248Z,61.95
2023-05-06T02:25:01.862Z,61.98
2023-05-06T02:27:03.826Z,61.62
2023-05-06T02:29:06.883Z,61.67
2023-05-06T02:31:13.127Z,61.94
2023-05-06T02:33:14.833Z,61.49
2023-05-06T02:35:16.481Z,61.92
2023-05-06T02:37:18.144Z,61.66
2023-05-06T02:39:19.704Z,61.91
2023-05-06T02:41:21.299Z,62.01
2023-05-06T02:43:24.437Z,61.82
2023-05-06T02:45:27.645Z,62.07
2023-05-06T02:47:29.380Z,62.11
2023-05-06T02:49:30.976Z,61.70
2023-05-06T02:51:32.510Z,62.23
2023-05-06T02:53:34.137Z,62.39
2023-05-06T02:55:35.871Z,61.96
2023-05-06T02:57:37.528Z,62.45
2023-05-06T02:59:39.150Z,62.15
2023-05-06T03:01:42.277Z,61.79
2023-05-06T03:03:44.152Z,61.86
2023-05-06T03:05:46.020Z,62.35
2023-05-06T03:07:47.787Z,62.04
2023-05-06T03:09:49.493Z,61.87
2023-05-06T03:11:51.442Z,61.93
2023-05-06T03:13:53.000Z,62.17
2023-05-06T03:15:56.024Z,62.01
2023-05-06T03:17:59.003Z,62.22
2023-05-06T03:20:00.615Z,62.54
2023-05-06T03:22:02.831Z,62.40
2023-05-06T03:24:05.506Z,62.67
2023-05-06T03:26:07.213Z,62.45
2023-05-06T03:28:10.832Z,62.91
2023-05-06T03:30:13.287Z,62.89
2023-05-06T03:32:15.059Z,62.60
2023-05-06T03:34:17.971Z,62.40
2023-05-06T03:36:19.646Z,62.39
2023-05-06T03:38:21.369Z,62.18
2023-05-06T03:40:23.029Z,62.00
2023-05-06T03:42:24.862Z,62.28
2023-05-06T03:44:26.732Z,62.51
2023-05-06T03:46:28.372Z,62.13
2023-05-06T03:48:29.992Z,61.74
2023-05-06T03:50:33.170Z,61.12
2023-05-06T03:52:34.840Z,61.15
2023-05-06T03:54:36.432Z,61.64
2023-05-06T03:56:38.014Z,61.74
2023-05-06T03:58:39.618Z,62.07
2023-05-06T04:00:41.231Z,61.93
2023-05-06T04:02:43.028Z,61.62
2023-05-06T04:04:44.657Z,61.17
2023-05-06T04:06:47.599Z,59.65
2023-05-06T04:08:49.377Z,58.90
2023-05-06T04:10:51.218Z,59.45
2023-05-06T04:12:55.111Z,59.64
2023-05-06T04:14:56.681Z,60.59
2023-05-06T04:16:58.334Z,60.28
2023-05-06T04:18:59.910Z,60.58
2023-05-06T04:21:01.591Z,60.35
2023-05-06T04:23:04.513Z,60.48
2023-05-06T04:25:08.688Z,60.29
2023-05-06T04:27:11.464Z,60.24
2023-05-06T04:29:13.026Z,59.80
2023-05-06T04:31:14.661Z,59.94
2023-05-06T04:33:16.924Z,60.08
2023-05-06T04:35:18.773Z,60.17
2023-05-06T04:37:20.366Z,59.83
2023-05-06T04:39:25.945Z,59.72
2023-05-06T04:41:27.499Z,59.79
2023-05-06T04:43:29.556Z,59.86
2023-05-06T04:45:31.207Z,60.38
2023-05-06T04:47:33.867Z,60.48
2023-05-06T04:49:35.869Z,60.37
2023-05-06T04:51:37.492Z,60.70
2023-05-06T04:53:41.528Z,60.73
2023-05-06T04:55:44.574Z,61.11
2023-05-06T04:57:46.391Z,60.84
2023-05-06T04:59:47.990Z,61.06
2023-05-06T05:01:49.621Z,61.73
2023-05-06T05:03:51.280Z,61.83
2023-05-06T05:05:54.052Z,61.50
2023-05-06T05:07:56.097Z,62.19
2023-05-06T05:09:57.810Z,61.91
2023-05-06T05:12:01.237Z,62.11
2023-05-06T05:14:02.804Z,62.28
2023-05-06T05:16:05.174Z,62.38
2023-05-06T05:18:07.097Z,62.40
2023-05-06T05:20:09.541Z,62.09
2023-05-06T05:22:11.461Z,62.23
2023-05-06T05:24:13.038Z,62.43
2023-05-06T05:26:14.612Z,62.59
2023-05-06T05:28:17.566Z,62.80
2023-05-06T05:30:19.535Z,63.13
2023-05-06T05:32:21.126Z,63.14
2023-05-06T05:34:22.815Z,63.15
2023-05-06T05:36:24.546Z,62.90
2023-05-06T05:38:26.507Z,62.95
2023-05-06T05:40:28.408Z,63.38
2023-05-06T05:42:30.137Z,63.71
2023-05-06T05:44:33.037Z,64.01
2023-05-06T05:46:34.917Z,64.08
2023-05-06T05:48:36.531Z,64.19
2023-05-06T05:50:38.079Z,64.39
2023-05-06T05:52:39.687Z,64.27
2023-05-06T05:54:41.278Z,64.45
2023-05-06T05:56:42.901Z,64.45
2023-05-06T05:58:44.554Z,64.52
2023-05-06T06:00:47.662Z,64.68
2023-05-06T06:02:49.384Z,64.98
2023-05-06T06:04:51.028Z,65.15
2023-05-06T06:06:52.727Z,65.43
2023-05-06T06:08:54.559Z,64.73
2023-05-06T06:10:56.153Z,65.07
2023-05-06T06:12:57.796Z,65.07
2023-05-06T06:14:59.487Z,64.79
2023-05-06T06:17:02.652Z,64.91
2023-05-06T06:19:04.269Z,64.33
2023-05-06T06:21:05.902Z,63.87
2023-05-06T06:23:07.513Z,64.10
2023-05-06T06:25:10.121Z,63.93
2023-05-06T06:27:11.937Z,64.04
2023-05-06T06:29:13.766Z,64.32
2023-05-06T06:31:15.391Z,63.83
2023-05-06T06:33:18.359Z,64.13
2023-05-06T06:35:20.259Z,63.50
2023-05-06T06:37:21.837Z,63.54
2023-05-06T06:39:23.428Z,63.24
2023-05-06T06:41:26.525Z,63.55
2023-05-06T06:43:28.388Z,62.82
2023-05-06T06:45:30.059Z,62.57
2023-05-06T06:47:31.710Z,62.83
2023-05-06T06:49:34.695Z,63.07
2023-05-06T06:51:36.408Z,62.12
2023-05-06T06:53:38.150Z,62.38
2023-05-06T06:55:43.263Z,61.23
2023-05-06T06:57:44.813Z,60.75
2023-05-06T06:59:46.377Z,60.37
2023-05-06T07:01:51.706Z,59.31
2023-05-06T07:03:53.646Z,58.98
2023-05-06T07:05:56.637Z,59.10
2023-05-06T07:07:58.308Z,58.66
2023-05-06T07:09:59.891Z,59.02
2023-05-06T07:12:01.546Z,59.34
2023-05-06T07:14:03.242Z,57.56
2023-05-06T07:16:05.168Z,57.68
2023-05-06T07:18:06.843Z,57.69
2023-05-06T07:20:09.783Z,56.69
2023-05-06T07:22:12.740Z,56.15
2023-05-06T07:24:14.494Z,57.41
2023-05-06T07:26:16.060Z,56.01
2023-05-06T07:28:17.669Z,56.08
2023-05-06T07:30:20.923Z,56.15
2023-05-06T07:32:24.016Z,56.59
2023-05-06T07:34:25.632Z,56.06
2023-05-06T07:36:27.336Z,56.83
2023-05-06T07:38:31.050Z,55.86
2023-05-06T07:40:33.166Z,55.78
2023-05-06T07:42:34.750Z,55.43
2023-05-06T07:44:36.565Z,55.39
2023-05-06T07:46:38.538Z,55.26
2023-05-06T07:48:40.426Z,54.68
2023-05-06T07:50:42.102Z,55.37
2023-05-06T07:52:43.693Z,54.43
2023-05-06T07:54:46.918Z,55.67
2023-05-06T07:56:48.588Z,55.19
2023-05-06T07:58:50.183Z,54.58
2023-05-06T08:02:53.635Z,53.96
2023-05-06T08:04:55.562Z,53.55
2023-05-06T08:06:57.348Z,52.76
2023-05-06T08:08:59.080Z,53.40
2023-05-06T08:11:02.021Z,53.36
2023-05-06T08:13:03.637Z,53.32
2023-05-06T08:15:06.287Z,53.03
2023-05-06T08:17:08.233Z,52.05
2023-05-06T08:19:09.865Z,52.40
2023-05-06T08:21:11.446Z,52.15
2023-05-06T08:23:13.267Z,52.68
2023-05-06T08:25:15.294Z,51.38
2023-05-06T08:27:18.269Z,51.60
2023-05-06T08:29:19.908Z,50.68
2023-05-06T08:31:21.576Z,51.45
2023-05-06T08:33:23.198Z,50.22
2023-05-06T08:35:24.826Z,50.44
2023-05-06T08:37:26.576Z,50.02
2023-05-06T08:39:28.214Z,50.03
2023-05-06T08:41:31.239Z,48.65
2023-05-06T08:43:40.212Z,50.00
2023-05-06T08:45:42.241Z,50.10
2023-05-06T08:47:44.387Z,50.49
2023-05-06T08:49:46.069Z,49.56
2023-05-06T08:51:50.916Z,48.54
2023-05-06T08:53:54.783Z,48.48
2023-05-06T08:55:57.935Z,48.34
2023-05-06T08:58:00.135Z,49.20
2023-05-06T09:00:03.642Z,46.78
2023-05-06T09:02:06.949Z,47.31
2023-05-06T09:04:10.135Z,47.68
2023-05-06T09:06:11.763Z,47.78
2023-05-06T09:08:13.568Z,48.22
2023-05-06T09:10:15.498Z,47.60
2023-05-06T09:12:17.360Z,47.39
2023-05-06T09:14:18.971Z,48.04
2023-05-06T09:16:29.456Z,46.97
2023-05-06T09:18:31.790Z,46.91
2023-05-06T09:20:33.508Z,47.50
2023-05-06T09:22:37.772Z,46.04
2023-05-06T09:24:39.510Z,45.99
2023-05-06T09:26:42.799Z,45.98
2023-05-06T09:28:45.978Z,46.27
2023-05-06T09:30:49.067Z,45.89
2023-05-06T09:32:52.677Z,45.34
2023-05-06T09:34:54.847Z,44.96
2023-05-06T09:36:56.398Z,44.55
2023-05-06T09:38:57.951Z,44.94
2023-05-06T09:40:59.554Z,45.14
2023-05-06T09:43:01.432Z,45.03
2023-05-06T09:45:03.190Z,44.07
2023-05-06T09:47:05.518Z,43.44
2023-05-06T09:49:08.528Z,43.85
2023-05-06T09:51:11.352Z,43.21
2023-05-06T09:53:14.295Z,43.19
2023-05-06T09:55:18.540Z,43.13
2023-05-06T09:57:21.656Z,43.51
2023-05-06T09:59:27.265Z,43.48
2023-05-06T10:01:36.911Z,43.23
2023-05-06T10:03:40.022Z,42.78
2023-05-06T10:05:43.563Z,42.76
2023-05-06T10:07:48.198Z,42.99
2023-05-06T10:09:50.380Z,43.14
2023-05-06T10:11:53.476Z,42.36
2023-05-06T10:13:55.328Z,43.72
2023-05-06T10:16:00.658Z,41.74
2023-05-06T10:18:02.818Z,40.87
2023-05-06T10:20:06.066Z,41.39
2023-05-06T10:22:17.109Z,40.93
2023-05-06T10:24:26.390Z,41.79
2023-05-06T10:26:29.979Z,41.72
2023-05-06T10:28:37.405Z,40.95
2023-05-06T10:30:41.308Z,41.33
2023-05-06T10:32:44.935Z,41.21
2023-05-06T10:34:53.557Z,40.64
2023-05-06T10:36:57.983Z,41.25
2023-05-06T10:39:01.034Z,40.81
2023-05-06T10:41:04.006Z,39.82
2023-05-06T10:43:23.780Z,39.01
2023-05-06T10:45:25.889Z,39.75
2023-05-06T10:47:27.663Z,40.25
2023-05-06T10:49:30.629Z,39.74
2023-05-06T10:51:32.981Z,40.14
2023-05-06T10:53:55.841Z,39.23
2023-05-06T10:56:07.244Z,39.01
2023-05-06T10:58:13.918Z,39.14
2023-05-06T11:00:16.390Z,39.60
2023-05-06T11:02:20.456Z,39.16
2023-05-06T11:04:22.989Z,39.04
2023-05-06T11:06:35.751Z,38.43
2023-05-06T11:08:38.350Z,37.49
2023-05-06T11:10:40.215Z,38.22
2023-05-06T11:12:48.127Z,37.62
2023-05-06T11:14:49.708Z,38.40
2023-05-06T11:16:52.723Z,38.18
2023-05-06T11:18:55.198Z,38.06
2023-05-06T11:21:39.519Z,37.92
2023-05-06T11:24:07.177Z,38.22
2023-05-06T11:26:09.653Z,37.72
2023-05-06T11:28:14.791Z,36.92
2023-05-06T11:30:16.493Z,37.52
2023-05-06T11:32:22.588Z,36.92
2023-05-06T11:34:26.990Z,36.86
2023-05-06T11:36:28.582Z,36.74
2023-05-06T11:38:43.864Z,36.76
2023-05-06T11:40:45.499Z,36.59
2023-05-06T11:42:47.407Z,36.97
2023-05-06T11:44:50.719Z,37.10
2023-05-06T11:46:55.772Z,37.19
2023-05-06T11:48:57.413Z,36.50
2023-05-06T11:50:58.967Z,36.16
2023-05-06T11:53:01.933Z,37.12
2023-05-06T11:55:08.200Z,37.13
2023-05-06T11:57:09.927Z,37.42
2023-05-06T11:59:11.575Z,35.98
2023-05-06T12:01:14.597Z,35.48
2023-05-06T12:03:16.441Z,34.78
2023-05-06T12:05:23.105Z,34.42
2023-05-06T12:07:25.192Z,32.81
2023-05-06T12:09:26.951Z,33.01
2023-05-06T12:11:28.669Z,32.61
2023-05-06T12:13:31.074Z,34.30
2023-05-06T12:15:34.758Z,34.24
2023-05-06T12:17:37.890Z,34.82
2023-05-06T12:19:39.585Z,32.92
2023-05-06T12:21:41.185Z,34.00
2023-05-06T12:23:50.803Z,33.65
2023-05-06T12:26:01.081Z,33.51
2023-05-06T12:28:13.495Z,31.70
2023-05-06T12:30:15.267Z,31.90
2023-05-06T12:32:16.955Z,31.89
2023-05-06T12:34:36.626Z,31.21
2023-05-06T12:36:42.767Z,31.05
2023-05-06T12:38:51.470Z,31.11
2023-05-06T12:40:54.330Z,31.14
2023-05-06T12:42:56.055Z,30.89
2023-05-06T12:44:57.788Z,30.16
2023-05-06T12:47:00.487Z,31.06
2023-05-06T12:49:03.394Z,30.16
2023-05-06T12:51:22.163Z,28.27
2023-05-06T12:53:34.652Z,29.16
2023-05-06T12:55:38.142Z,29.83
2023-05-06T12:57:39.812Z,29.69
2023-05-06T12:59:43.059Z,28.44
2023-05-06T13:01:44.766Z,29.17
2023-05-06T13:03:46.636Z,28.79
2023-05-06T13:05:48.371Z,27.50
2023-05-06T13:07:51.552Z,27.19
2023-05-06T13:09:53.382Z,28.60
2023-05-06T13:11:55.087Z,26.50
2023-05-06T13:13:59.298Z,27.01
2023-05-06T13:16:01.171Z,26.79
2023-05-06T13:18:02.878Z,26.68
2023-05-06T13:20:08.063Z,27.08
2023-05-06T13:22:09.817Z,26.59
2023-05-06T13:24:12.931Z,27.20
2023-05-06T13:26:15.070Z,27.10
2023-05-06T13:28:16.688Z,28.21
2023-05-06T13:30:18.254Z,28.13
2023-05-06T13:32:19.886Z,26.36
2023-05-06T13:34:21.534Z,26.38
2023-05-06T13:36:23.383Z,27.09
2023-05-06T13:38:24.998Z,26.82
2023-05-06T13:40:28.283Z,27.43
2023-05-06T13:42:29.824Z,27.29
2023-05-06T13:44:31.541Z,28.36
2023-05-06T13:46:33.646Z,27.29
2023-05-06T13:48:35.371Z,28.13
2023-05-06T13:50:37.050Z,27.83
2023-05-06T13:52:38.598Z,28.32
2023-05-06T13:54:40.236Z,28.69
2023-05-06T13:56:43.154Z,28.66
2023-05-06T13:58:45.015Z,28.17
2023-05-06T14:00:46.599Z,30.31
2023-05-06T14:02:48.276Z,29.73
2023-05-06T14:04:52.527Z,29.22
2023-05-06T14:06:54.169Z,29.26
2023-05-06T14:08:55.789Z,28.84
2023-05-06T14:10:57.480Z,29.04
2023-05-06T14:13:00.687Z,29.14
2023-05-06T14:15:02.357Z,30.82
2023-05-06T14:17:03.947Z,31.55
2023-05-06T14:19:05.603Z,30.76
2023-05-06T14:21:07.470Z,29.63
2023-05-06T14:23:09.132Z,29.52
2023-05-06T14:25:10.931Z,29.09
2023-05-06T14:27:12.804Z,30.25
2023-05-06T14:29:16.926Z,29.27
2023-05-06T14:31:18.580Z,29.68
2023-05-06T14:33:20.320Z,30.01
2023-05-06T14:35:22.182Z,29.17
2023-05-06T14:37:23.798Z,29.24
2023-05-06T14:39:25.578Z,30.41
2023-05-06T14:41:27.374Z,30.11
2023-05-06T14:43:29.025Z,29.92
2023-05-06T14:45:32.048Z,31.37
2023-05-06T14:47:33.794Z,31.35
2023-05-06T14:49:35.385Z,31.66
2023-05-06T14:51:37.008Z,29.80
2023-05-06T14:53:38.618Z,30.77
2023-05-06T14:55:40.434Z,29.81
2023-05-06T14:57:42.069Z,31.28
2023-05-06T14:59:43.712Z,29.24
2023-05-06T15:01:46.832Z,29.33
2023-05-06T15:03:48.517Z,29.14
2023-05-06T15:05:50.243Z,29.60
2023-05-06T15:07:52.068Z,30.67
2023-05-06T15:09:53.740Z,30.66
2023-05-06T15:11:55.338Z,30.77
2023-05-06T15:13:57.252Z,29.90
2023-05-06T15:15:58.985Z,29.70
2023-05-06T15:18:02.062Z,30.41
2023-05-06T15:20:04.510Z,30.13
2023-05-06T15:22:06.397Z,33.48
2023-05-06T15:24:08.419Z,32.37
2023-05-06T15:26:10.002Z,34.95
2023-05-06T15:28:11.610Z,35.34
2023-05-06T15:30:14.501Z,34.50
2023-05-06T15:32:16.088Z,32.75
2023-05-06T15:34:19.179Z,34.87
2023-05-06T15:36:20.860Z,34.07
2023-05-06T15:38:22.490Z,34.94
2023-05-06T15:40:24.445Z,32.20
2023-05-06T15:42:26.289Z,35.98
2023-05-06T15:44:27.963Z,32.34
2023-05-06T15:46:31.260Z,32.43
2023-05-06T15:48:33.056Z,33.45
2023-05-06T15:50:38.470Z,35.04
2023-05-06T15:52:40.247Z,32.27
2023-05-06T15:54:41.802Z,33.78
2023-05-06T15:56:43.498Z,35.19
2023-05-06T15:58:45.349Z,35.45
2023-05-06T16:00:47.189Z,33.86
2023-05-06T16:02:49.053Z,31.57
2023-05-06T16:04:51.169Z,31.47
2023-05-06T16:06:54.569Z,32.31
2023-05-06T16:08:56.218Z,31.88
2023-05-06T16:10:58.315Z,32.70
2023-05-06T16:12:59.905Z,31.51
2023-05-06T16:15:01.874Z,31.62
2023-05-06T16:17:03.570Z,31.30
2023-05-06T16:19:05.237Z,31.79
2023-05-06T16:21:07.208Z,31.79
2023-05-06T16:23:10.323Z,32.53
2023-05-06T16:25:11.985Z,32.88
2023-05-06T16:27:13.662Z,31.91
2023-05-06T16:29:15.239Z,31.22
2023-05-06T16:31:16.970Z,30.91
2023-05-06T16:33:18.523Z,30.54
2023-05-06T16:35:20.310Z,31.06
2023-05-06T16:37:21.913Z,31.80
2023-05-06T16:39:25.259Z,32.21
2023-05-06T16:41:26.758Z,32.36
2023-05-06T16:43:28.330Z,32.22
2023-05-06T16:45:29.877Z,33.26
2023-05-06T16:47:31.672Z,32.35
2023-05-06T16:49:33.354Z,32.84
2023-05-06T16:51:35.003Z,32.68
2023-05-06T16:53:36.591Z,32.11
2023-05-06T16:55:39.758Z,32.20
2023-05-06T16:57:41.474Z,32.21
2023-05-06T16:59:43.191Z,32.02
2023-05-06T17:01:45.104Z,31.85
2023-05-06T17:03:46.680Z,33.21
2023-05-06T17:05:48.639Z,34.15
2023-05-06T17:07:51.094Z,32.79
2023-05-06T17:09:55.144Z,32.34
2023-05-06T17:11:58.128Z,32.50
2023-05-06T17:13:59.756Z,33.12
2023-05-06T17:16:01.432Z,31.98
2023-05-06T17:18:03.265Z,31.76
2023-05-06T17:20:05.908Z,32.20
2023-05-06T17:22:07.483Z,32.58
2023-05-06T17:24:09.529Z,32.81
2023-05-06T17:26:11.368Z,32.61
2023-05-06T17:28:15.185Z,32.60
2023-05-06T17:30:17.971Z,32.59
2023-05-06T17:32:19.875Z,33.27
2023-05-06T17:36:28.295Z,31.85
2023-05-06T17:38:29.897Z,31.68
2023-05-06T17:40:31.676Z,32.52
2023-05-06T17:42:33.369Z,32.67
2023-05-06T17:44:36.584Z,32.71
2023-05-06T17:46:38.366Z,31.98
2023-05-06T17:48:40.631Z,31.92
2023-05-06T17:50:42.375Z,32.03
2023-05-06T17:52:44.401Z,31.70
2023-05-06T17:54:57.137Z,31.87
2023-05-06T17:57:07.645Z,32.03
2023-05-06T17:59:09.264Z,32.38
2023-05-06T18:01:13.228Z,32.96
2023-05-06T18:03:15.106Z,33.70
2023-05-06T18:05:16.940Z,33.01
2023-05-06T18:07:18.552Z,33.34
2023-05-06T18:09:20.480Z,33.55
2023-05-06T18:11:22.164Z,33.31
2023-05-06T18:13:23.845Z,34.10
2023-05-06T18:15:25.947Z,34.29
2023-05-06T18:17:28.968Z,34.61
2023-05-06T18:19:31.670Z,34.92
2023-05-06T18:21:33.445Z,35.93
2023-05-06T18:23:35.469Z,36.24
2023-05-06T18:25:37.063Z,36.95
2023-05-06T18:27:39.450Z,36.64
2023-05-06T18:29:41.119Z,36.96
2023-05-06T18:31:45.958Z,36.95
2023-05-06T18:33:49.213Z,37.97
2023-05-06T18:35:52.873Z,37.47
2023-05-06T18:37:59.734Z,37.70
2023-05-06T18:40:01.633Z,37.62
2023-05-06T18:42:03.770Z,37.92
2023-05-06T18:44:05.670Z,37.75
2023-05-06T18:46:07.331Z,37.83
2023-05-06T18:48:09.519Z,37.79
2023-05-06T18:50:12.580Z,38.71
2023-05-06T18:52:14.718Z,38.80
2023-05-06T18:54:16.380Z,38.83
2023-05-06T18:56:17.999Z,38.74
2023-05-06T18:58:23.265Z,39.21
2023-05-06T19:00:26.606Z,39.37
2023-05-06T19:02:29.010Z,39.21
2023-05-06T19:04:32.044Z,39.37
2023-05-06T19:06:35.136Z,39.87
2023-05-06T19:08:37.533Z,39.95
2023-05-06T19:10:39.170Z,40.07
2023-05-06T19:12:40.995Z,40.25
2023-05-06T19:14:42.563Z,40.03
2023-05-06T19:16:44.264Z,39.61
2023-05-06T19:18:45.881Z,40.11
2023-05-06T19:20:47.492Z,40.29
2023-05-06T19:22:50.717Z,40.21
2023-05-06T19:24:52.544Z,40.29
2023-05-06T19:26:54.121Z,40.36
2023-05-06T19:28:56.077Z,40.99
2023-05-06T19:30:57.750Z,40.56
2023-05-06T19:33:00.130Z,41.07
2023-05-06T19:35:04.602Z,40.75
2023-05-06T19:37:06.188Z,40.62
2023-05-06T19:39:09.598Z,41.14
2023-05-06T19:41:11.636Z,41.08
2023-05-06T19:43:13.524Z,41.34
2023-05-06T19:45:18.933Z,41.12
2023-05-06T19:47:21.138Z,40.33
2023-05-06T19:49:23.209Z,40.78
2023-05-06T19:51:24.787Z,40.48
2023-05-06T19:53:26.470Z,40.05
2023-05-06T19:55:30.422Z,39.69
2023-05-06T19:57:32.298Z,39.36
2023-05-06T19:59:36.286Z,39.28
2023-05-06T20:01:38.022Z,39.52
2023-05-06T20:03:39.835Z,39.31
2023-05-06T20:05:43.065Z,39.60
2023-05-06T20:07:44.772Z,38.58
2023-05-06T20:09:46.365Z,38.88
2023-05-06T20:11:49.399Z,39.21
2023-05-06T20:13:55.450Z,39.57
2023-05-06T20:15:57.211Z,39.31
2023-05-06T20:17:58.974Z,39.70
2023-05-06T20:20:02.573Z,38.84
2023-05-06T20:22:07.390Z,38.68
2023-05-06T20:24:09.382Z,39.11
2023-05-06T20:26:11.058Z,39.18
2023-05-06T20:28:16.364Z,39.23
2023-05-06T20:30:18.105Z,39.45
2023-05-06T20:32:19.836Z,39.02
2023-05-06T20:34:21.444Z,39.17
2023-05-06T20:36:25.900Z,38.88
2023-05-06T20:38:28.110Z,40.35
2023-05-06T20:40:30.603Z,41.42
2023-05-06T20:42:32.693Z,41.29
2023-05-06T20:44:37.656Z,41.79
2023-05-06T20:46:39.270Z,41.88
2023-05-06T20:48:40.959Z,42.19
2023-05-06T20:50:42.590Z,42.44
2023-05-06T20:52:45.289Z,42.72
2023-05-06T20:54:47.601Z,42.92
2023-05-06T20:56:49.285Z,42.92
2023-05-06T20:58:51.802Z,43.15
2023-05-06T21:00:54.815Z,43.00
2023-05-06T21:02:56.806Z,43.08
2023-05-06T21:05:03.033Z,43.08
2023-05-06T21:07:05.937Z,43.40
2023-05-06T21:09:07.609Z,43.35
2023-05-06T21:11:09.298Z,43.18
2023-05-06T21:13:11.368Z,43.38
2023-05-06T21:15:13.233Z,43.36
2023-05-06T21:17:16.529Z,43.59
2023-05-06T21:19:19.838Z,43.45
2023-05-06T21:21:24.097Z,43.87
2023-05-06T21:23:32.720Z,43.82
2023-05-06T21:25:34.327Z,43.86
2023-05-06T21:27:36.434Z,44.02
2023-05-06T21:29:38.113Z,44.28
2023-05-06T21:31:40.149Z,44.42
2023-05-06T21:33:43.657Z,44.62
2023-05-06T21:35:45.243Z,44.81
2023-05-06T21:37:46.863Z,44.41
2023-05-06T21:39:48.426Z,44.69
2023-05-06T21:41:50.241Z,44.07
2023-05-06T21:43:55.786Z,44.48
2023-05-06T21:45:57.681Z,44.48
2023-05-06T21:47:59.826Z,43.78
2023-05-06T21:50:02.944Z,43.59
2023-05-06T21:52:05.928Z,43.73
2023-05-06T21:54:07.662Z,43.50
2023-05-06T21:56:09.257Z,42.86
2023-05-06T21:58:11.237Z,42.96
2023-05-06T22:00:14.854Z,43.17
2023-05-06T22:02:16.553Z,43.71
2023-05-06T22:04:18.233Z,43.57
2023-05-06T22:06:22.468Z,44.10
2023-05-06T22:08:24.306Z,44.25
2023-05-06T22:10:25.913Z,44.36
2023-05-06T22:12:27.605Z,44.38
2023-05-06T22:14:37.389Z,44.47
2023-05-06T22:16:43.704Z,44.31
2023-05-06T22:18:45.495Z,44.47
2023-05-06T22:20:47.244Z,44.38
2023-05-06T22:22:51.781Z,44.88
2023-05-06T22:24:53.766Z,44.53
2023-05-06T22:26:55.919Z,44.39
2023-05-06T22:28:57.649Z,44.58
2023-05-06T22:30:59.535Z,44.58
2023-05-06T22:33:01.475Z,44.47
2023-05-06T22:35:03.310Z,44.33
2023-05-06T22:37:09.046Z,44.46
2023-05-06T22:39:12.264Z,44.46
2023-05-06T22:41:14.289Z,44.54
2023-05-06T22:43:16.442Z,44.42
2023-05-06T22:45:18.409Z,44.43
2023-05-06T22:47:20.342Z,44.13
2023-05-06T22:49:22.541Z,44.22
2023-05-06T22:51:24.139Z,44.12
2023-05-06T22:53:26.702Z,44.44
2023-05-06T22:55:39.465Z,44.16
2023-05-06T22:57:41.166Z,44.48
2023-05-06T22:59:43.326Z,44.59
2023-05-06T23:01:45.497Z,44.37
2023-05-06T23:03:47.291Z,44.63
2023-05-06T23:05:49.808Z,44.44
2023-05-06T23:07:51.609Z,44.48
2023-05-06T23:09:53.326Z,44.48
2023-05-06T23:11:56.653Z,44.60
2023-05-06T23:13:58.329Z,44.72
2023-05-06T23:16:00.058Z,44.59
2023-05-06T23:18:01.779Z,44.59
2023-05-06T23:20:03.987Z,44.34
2023-05-06T23:22:05.562Z,44.56
2023-05-06T23:24:08.572Z,44.45
2023-05-06T23:26:10.215Z,44.24
2023-05-06T23:28:14.461Z,44.58
2023-05-06T23:30:17.556Z,45.18
2023-05-06T23:32:21.731Z,44.75
2023-05-06T23:34:23.468Z,44.43
2023-05-06T23:36:26.142Z,44.61
2023-05-06T23:38:28.075Z,45.12
2023-05-06T23:40:29.852Z,44.81
2023-05-06T23:42:31.600Z,44.40
2023-05-06T23:44:35.016Z,44.22
2023-05-06T23:46:36.781Z,44.50
2023-05-06T23:48:38.898Z,44.88
2023-05-06T23:50:40.805Z,44.49
2023-05-06T23:52:42.430Z,44.70
2023-05-06T23:54:44.033Z,45.31
2023-05-06T23:56:45.647Z,45.66
2023-05-06T23:58:48.373Z,45.86
